Hlavní strana
METAR-TAF:

METAR-TAF

Letiště :

Moore County Airport

Pinehurst / Southern Pines, Severní Karolína, Spojené státy americké

zeměpisná šířka: 35-14N, zeměpisná délka: 079-24W, výška: 141 m

Aktuální stav počasí

Zpráva byla vytvořena před 28 minutami, v 08:21 UTC
Bezvětří
Teplota 21°C
Vlhkost vzduchu 100%
Tlak 1017 hPa
Viditelnost: 16.1 km
Zataženo ve výšce 500 ft

METAR: KSOP 280821Z AUTO 00000KT 10SM OVC005 21/21 A3004 RMK AO2

Čas: 04:49 (08:49 UTC)


TAF: chybějící

Stav a předpovědi počasí z více než 4 000 letišť (zprávy METAR a TAF).

Červené a žluté tečky na mapě představují dostupné meteorologické stanice.

Když kurzor umístíte na tečku, zobrazí se název stanice.

Pak kliknutím zobrazíte stav a předpověď počasí.

Chcete-li změnit mapu, kliknutím na zelené tlačítko se znaménkem +mapu přiblížíte, kliknutím na zelené tlačítko se znaménkem – mapu oddálíte a kliknutím na zelené šipky přejdete na sousední mapy.


METAR-TAF: